sensor_id;sensor_type;location;lat;lon;timestamp;P1;durP1;ratioP1;P2;durP2;ratioP2
4821;SDS011;2425;47.794;13.068;2023-02-13T00:00:54;20.60;;;18.30;;
4821;SDS011;2425;47.794;13.068;2023-02-13T00:03:20;22.97;;;17.83;;
4821;SDS011;2425;47.794;13.068;2023-02-13T00:05:47;23.57;;;17.70;;
4821;SDS011;2425;47.794;13.068;2023-02-13T00:08:14;21.43;;;17.10;;
4821;SDS011;2425;47.794;13.068;2023-02-13T00:10:42;22.77;;;17.70;;
4821;SDS011;2425;47.794;13.068;2023-02-13T00:13:09;23.73;;;17.63;;
4821;SDS011;2425;47.794;13.068;2023-02-13T00:15:35;17.07;;;15.27;;
4821;SDS011;2425;47.794;13.068;2023-02-13T00:18:02;19.80;;;15.87;;
4821;SDS011;2425;47.794;13.068;2023-02-13T00:20:29;19.07;;;15.83;;
4821;SDS011;2425;47.794;13.068;2023-02-13T00:22:57;23.67;;;17.80;;
4821;SDS011;2425;47.794;13.068;2023-02-13T00:25:24;25.77;;;16.57;;
4821;SDS011;2425;47.794;13.068;2023-02-13T00:27:52;19.37;;;16.00;;
4821;SDS011;2425;47.794;13.068;2023-02-13T00:30:19;20.40;;;16.30;;
4821;SDS011;2425;47.794;13.068;2023-02-13T00:32:46;21.30;;;16.10;;
4821;SDS011;2425;47.794;13.068;2023-02-13T00:35:13;17.47;;;15.47;;
4821;SDS011;2425;47.794;13.068;2023-02-13T00:37:39;21.00;;;16.40;;
4821;SDS011;2425;47.794;13.068;2023-02-13T00:40:07;20.30;;;15.70;;
4821;SDS011;2425;47.794;13.068;2023-02-13T00:42:34;16.57;;;14.77;;
4821;SDS011;2425;47.794;13.068;2023-02-13T00:45:02;22.27;;;15.20;;
4821;SDS011;2425;47.794;13.068;2023-02-13T00:47:29;17.00;;;14.73;;
4821;SDS011;2425;47.794;13.068;2023-02-13T00:49:56;16.73;;;15.00;;
4821;SDS011;2425;47.794;13.068;2023-02-13T00:52:22;17.73;;;14.83;;
4821;SDS011;2425;47.794;13.068;2023-02-13T00:54:49;18.33;;;15.33;;
4821;SDS011;2425;47.794;13.068;2023-02-13T00:57:16;19.87;;;16.03;;
4821;SDS011;2425;47.794;13.068;2023-02-13T00:59:42;16.63;;;14.50;;
4821;SDS011;2425;47.794;13.068;2023-02-13T01:02:11;16.83;;;14.80;;
4821;SDS011;2425;47.794;13.068;2023-02-13T01:04:37;17.13;;;14.97;;
4821;SDS011;2425;47.794;13.068;2023-02-13T01:07:04;16.77;;;14.00;;
4821;SDS011;2425;47.794;13.068;2023-02-13T01:09:31;16.83;;;14.17;;
4821;SDS011;2425;47.794;13.068;2023-02-13T01:11:58;16.57;;;14.17;;
4821;SDS011;2425;47.794;13.068;2023-02-13T01:14:24;18.17;;;15.30;;
4821;SDS011;2425;47.794;13.068;2023-02-13T01:16:51;16.13;;;13.63;;
4821;SDS011;2425;47.794;13.068;2023-02-13T01:19:19;17.37;;;13.57;;
4821;SDS011;2425;47.794;13.068;2023-02-13T01:21:46;16.23;;;14.47;;
4821;SDS011;2425;47.794;13.068;2023-02-13T01:24:13;15.60;;;13.93;;
4821;SDS011;2425;47.794;13.068;2023-02-13T01:26:39;16.03;;;13.27;;
4821;SDS011;2425;47.794;13.068;2023-02-13T01:29:06;16.77;;;13.40;;
4821;SDS011;2425;47.794;13.068;2023-02-13T01:31:33;16.50;;;13.90;;
4821;SDS011;2425;47.794;13.068;2023-02-13T01:34:00;16.37;;;13.27;;
4821;SDS011;2425;47.794;13.068;2023-02-13T01:36:28;15.07;;;12.90;;
4821;SDS011;2425;47.794;13.068;2023-02-13T01:38:56;15.50;;;13.43;;
4821;SDS011;2425;47.794;13.068;2023-02-13T01:41:23;16.70;;;13.47;;
4821;SDS011;2425;47.794;13.068;2023-02-13T01:43:52;15.00;;;12.37;;
4821;SDS011;2425;47.794;13.068;2023-02-13T01:46:21;15.67;;;13.10;;
4821;SDS011;2425;47.794;13.068;2023-02-13T01:48:52;16.17;;;13.13;;
4821;SDS011;2425;47.794;13.068;2023-02-13T01:51:22;15.40;;;13.20;;
4821;SDS011;2425;47.794;13.068;2023-02-13T01:53:53;14.30;;;12.53;;
4821;SDS011;2425;47.794;13.068;2023-02-13T01:56:24;13.70;;;12.30;;
4821;SDS011;2425;47.794;13.068;2023-02-13T01:58:55;14.27;;;12.30;;
4821;SDS011;2425;47.794;13.068;2023-02-13T02:01:29;14.70;;;13.10;;
4821;SDS011;2425;47.794;13.068;2023-02-13T02:03:58;14.33;;;12.80;;
4821;SDS011;2425;47.794;13.068;2023-02-13T02:06:29;16.90;;;12.70;;
4821;SDS011;2425;47.794;13.068;2023-02-13T02:08:59;14.57;;;13.07;;
4821;SDS011;2425;47.794;13.068;2023-02-13T02:11:30;13.40;;;11.43;;
4821;SDS011;2425;47.794;13.068;2023-02-13T02:14:00;13.63;;;12.20;;
4821;SDS011;2425;47.794;13.068;2023-02-13T02:16:28;14.10;;;12.20;;
4821;SDS011;2425;47.794;13.068;2023-02-13T02:18:55;15.70;;;12.50;;
4821;SDS011;2425;47.794;13.068;2023-02-13T02:24:45;14.10;;;12.57;;
4821;SDS011;2425;47.794;13.068;2023-02-13T02:33:19;13.47;;;12.07;;
4821;SDS011;2425;47.794;13.068;2023-02-13T02:35:50;12.90;;;11.23;;
4821;SDS011;2425;47.794;13.068;2023-02-13T02:38:25;13.07;;;11.70;;
4821;SDS011;2425;47.794;13.068;2023-02-13T02:41:04;12.63;;;11.17;;
4821;SDS011;2425;47.794;13.068;2023-02-13T02:43:38;13.10;;;11.70;;
4821;SDS011;2425;47.794;13.068;2023-02-13T02:46:12;12.20;;;10.90;;
4821;SDS011;2425;47.794;13.068;2023-02-13T02:48:45;12.10;;;10.80;;
4821;SDS011;2425;47.794;13.068;2023-02-13T02:51:35;11.70;;;10.50;;
4821;SDS011;2425;47.794;13.068;2023-02-13T02:54:06;11.47;;;10.37;;
4821;SDS011;2425;47.794;13.068;2023-02-13T02:56:49;11.80;;;10.60;;
4821;SDS011;2425;47.794;13.068;2023-02-13T02:59:18;11.70;;;10.50;;
4821;SDS011;2425;47.794;13.068;2023-02-13T03:02:18;13.60;;;11.47;;
4821;SDS011;2425;47.794;13.068;2023-02-13T03:05:11;11.17;;;10.07;;
4821;SDS011;2425;47.794;13.068;2023-02-13T03:08:00;11.40;;;10.30;;
4821;SDS011;2425;47.794;13.068;2023-02-13T03:10:28;11.23;;;10.10;;
4821;SDS011;2425;47.794;13.068;2023-02-13T03:13:16;11.50;;;10.40;;
4821;SDS011;2425;47.794;13.068;2023-02-13T03:15:57;11.07;;;9.83;;
4821;SDS011;2425;47.794;13.068;2023-02-13T03:18:43;11.60;;;10.43;;
4821;SDS011;2425;47.794;13.068;2023-02-13T03:21:32;11.73;;;10.30;;
4821;SDS011;2425;47.794;13.068;2023-02-13T03:24:22;10.93;;;9.83;;
4821;SDS011;2425;47.794;13.068;2023-02-13T03:26:55;11.50;;;10.30;;
4821;SDS011;2425;47.794;13.068;2023-02-13T03:29:27;10.80;;;9.70;;
4821;SDS011;2425;47.794;13.068;2023-02-13T03:32:19;10.37;;;9.37;;
4821;SDS011;2425;47.794;13.068;2023-02-13T03:35:03;11.10;;;9.90;;
4821;SDS011;2425;47.794;13.068;2023-02-13T03:38:00;10.97;;;9.87;;
4821;SDS011;2425;47.794;13.068;2023-02-13T03:40:30;10.40;;;9.37;;
4821;SDS011;2425;47.794;13.068;2023-02-13T03:43:02;10.80;;;9.70;;
4821;SDS011;2425;47.794;13.068;2023-02-13T03:45:33;9.30;;;8.40;;
4821;SDS011;2425;47.794;13.068;2023-02-13T03:48:23;10.47;;;9.40;;
4821;SDS011;2425;47.794;13.068;2023-02-13T03:51:09;9.50;;;8.60;;
4821;SDS011;2425;47.794;13.068;2023-02-13T03:53:40;11.10;;;9.90;;
4821;SDS011;2425;47.794;13.068;2023-02-13T03:56:07;10.23;;;9.23;;
4821;SDS011;2425;47.794;13.068;2023-02-13T03:58:53;9.63;;;8.63;;
4821;SDS011;2425;47.794;13.068;2023-02-13T04:01:43;9.80;;;8.80;;
4821;SDS011;2425;47.794;13.068;2023-02-13T04:04:18;9.63;;;8.73;;
4821;SDS011;2425;47.794;13.068;2023-02-13T04:06:49;9.90;;;9.00;;
4821;SDS011;2425;47.794;13.068;2023-02-13T04:09:19;10.63;;;9.17;;
4821;SDS011;2425;47.794;13.068;2023-02-13T04:11:48;9.90;;;8.80;;
4821;SDS011;2425;47.794;13.068;2023-02-13T04:14:19;9.07;;;8.17;;
4821;SDS011;2425;47.794;13.068;2023-02-13T04:16:48;9.33;;;8.30;;
4821;SDS011;2425;47.794;13.068;2023-02-13T04:19:17;9.70;;;8.60;;
4821;SDS011;2425;47.794;13.068;2023-02-13T04:21:47;10.20;;;9.20;;
4821;SDS011;2425;47.794;13.068;2023-02-13T04:24:15;9.07;;;8.20;;
4821;SDS011;2425;47.794;13.068;2023-02-13T04:26:43;9.27;;;8.40;;
4821;SDS011;2425;47.794;13.068;2023-02-13T04:29:10;9.60;;;8.20;;
4821;SDS011;2425;47.794;13.068;2023-02-13T04:31:41;7.97;;;7.27;;
4821;SDS011;2425;47.794;13.068;2023-02-13T04:34:16;10.10;;;7.93;;
4821;SDS011;2425;47.794;13.068;2023-02-13T04:36:43;8.93;;;8.13;;
4821;SDS011;2425;47.794;13.068;2023-02-13T04:39:10;8.10;;;7.40;;
4821;SDS011;2425;47.794;13.068;2023-02-13T04:41:38;9.27;;;8.37;;
4821;SDS011;2425;47.794;13.068;2023-02-13T04:44:06;9.23;;;8.33;;
4821;SDS011;2425;47.794;13.068;2023-02-13T04:46:33;9.13;;;8.30;;
4821;SDS011;2425;47.794;13.068;2023-02-13T04:48:59;8.30;;;7.50;;
4821;SDS011;2425;47.794;13.068;2023-02-13T04:51:26;7.80;;;7.10;;
4821;SDS011;2425;47.794;13.068;2023-02-13T04:53:53;8.40;;;7.60;;
4821;SDS011;2425;47.794;13.068;2023-02-13T04:56:20;8.77;;;8.00;;
4821;SDS011;2425;47.794;13.068;2023-02-13T04:58:47;9.00;;;8.10;;
4821;SDS011;2425;47.794;13.068;2023-02-13T05:01:15;9.67;;;7.80;;
4821;SDS011;2425;47.794;13.068;2023-02-13T05:03:43;8.17;;;7.40;;
4821;SDS011;2425;47.794;13.068;2023-02-13T05:06:10;8.07;;;7.30;;
4821;SDS011;2425;47.794;13.068;2023-02-13T05:08:36;7.73;;;7.03;;
4821;SDS011;2425;47.794;13.068;2023-02-13T05:11:03;7.90;;;7.30;;
4821;SDS011;2425;47.794;13.068;2023-02-13T05:13:30;8.37;;;7.50;;
4821;SDS011;2425;47.794;13.068;2023-02-13T05:15:57;7.97;;;7.23;;
4821;SDS011;2425;47.794;13.068;2023-02-13T05:18:25;7.87;;;7.10;;
4821;SDS011;2425;47.794;13.068;2023-02-13T05:20:52;8.50;;;7.70;;
4821;SDS011;2425;47.794;13.068;2023-02-13T05:23:36;8.40;;;7.60;;
4821;SDS011;2425;47.794;13.068;2023-02-13T05:26:03;7.70;;;7.00;;
4821;SDS011;2425;47.794;13.068;2023-02-13T05:28:30;7.27;;;6.57;;
4821;SDS011;2425;47.794;13.068;2023-02-13T05:31:14;8.17;;;7.47;;
4821;SDS011;2425;47.794;13.068;2023-02-13T05:33:42;7.43;;;6.77;;
4821;SDS011;2425;47.794;13.068;2023-02-13T05:36:09;7.60;;;6.90;;
4821;SDS011;2425;47.794;13.068;2023-02-13T05:38:36;7.37;;;6.67;;
4821;SDS011;2425;47.794;13.068;2023-02-13T05:41:02;7.23;;;6.53;;
4821;SDS011;2425;47.794;13.068;2023-02-13T05:43:29;7.00;;;6.40;;
4821;SDS011;2425;47.794;13.068;2023-02-13T05:46:06;7.40;;;6.70;;
4821;SDS011;2425;47.794;13.068;2023-02-13T05:48:34;7.47;;;6.87;;
4821;SDS011;2425;47.794;13.068;2023-02-13T05:51:02;7.50;;;6.83;;
4821;SDS011;2425;47.794;13.068;2023-02-13T05:53:29;7.23;;;6.63;;
4821;SDS011;2425;47.794;13.068;2023-02-13T05:55:59;6.63;;;6.07;;
4821;SDS011;2425;47.794;13.068;2023-02-13T05:58:27;7.80;;;7.10;;
4821;SDS011;2425;47.794;13.068;2023-02-13T06:00:54;7.27;;;6.63;;
4821;SDS011;2425;47.794;13.068;2023-02-13T06:03:21;6.70;;;6.10;;
4821;SDS011;2425;47.794;13.068;2023-02-13T06:05:48;7.23;;;6.53;;
4821;SDS011;2425;47.794;13.068;2023-02-13T06:08:16;7.10;;;6.50;;
4821;SDS011;2425;47.794;13.068;2023-02-13T06:10:42;6.50;;;6.00;;
4821;SDS011;2425;47.794;13.068;2023-02-13T06:13:09;7.20;;;6.50;;
4821;SDS011;2425;47.794;13.068;2023-02-13T06:15:36;6.77;;;6.23;;
4821;SDS011;2425;47.794;13.068;2023-02-13T06:18:03;6.30;;;5.80;;
4821;SDS011;2425;47.794;13.068;2023-02-13T06:20:29;6.23;;;5.67;;
4821;SDS011;2425;47.794;13.068;2023-02-13T06:22:56;6.70;;;6.10;;
4821;SDS011;2425;47.794;13.068;2023-02-13T06:25:24;6.37;;;5.87;;
4821;SDS011;2425;47.794;13.068;2023-02-13T06:27:51;5.70;;;5.30;;
4821;SDS011;2425;47.794;13.068;2023-02-13T06:30:18;6.90;;;6.30;;
4821;SDS011;2425;47.794;13.068;2023-02-13T06:32:45;6.47;;;5.97;;
4821;SDS011;2425;47.794;13.068;2023-02-13T06:35:13;6.30;;;5.80;;
4821;SDS011;2425;47.794;13.068;2023-02-13T06:37:40;6.53;;;5.93;;
4821;SDS011;2425;47.794;13.068;2023-02-13T06:40:08;6.20;;;5.70;;
4821;SDS011;2425;47.794;13.068;2023-02-13T06:42:37;6.20;;;5.70;;
4821;SDS011;2425;47.794;13.068;2023-02-13T06:45:05;5.33;;;4.93;;
4821;SDS011;2425;47.794;13.068;2023-02-13T06:47:32;6.70;;;6.10;;
4821;SDS011;2425;47.794;13.068;2023-02-13T06:49:59;6.83;;;6.13;;
4821;SDS011;2425;47.794;13.068;2023-02-13T06:52:26;6.27;;;5.77;;
4821;SDS011;2425;47.794;13.068;2023-02-13T06:54:54;6.20;;;5.70;;
4821;SDS011;2425;47.794;13.068;2023-02-13T06:57:21;6.20;;;5.70;;
4821;SDS011;2425;47.794;13.068;2023-02-13T06:59:49;5.87;;;5.37;;
4821;SDS011;2425;47.794;13.068;2023-02-13T07:02:15;5.33;;;4.97;;
4821;SDS011;2425;47.794;13.068;2023-02-13T07:04:42;6.30;;;5.80;;
4821;SDS011;2425;47.794;13.068;2023-02-13T07:07:09;6.17;;;5.67;;
4821;SDS011;2425;47.794;13.068;2023-02-13T07:09:36;14.37;;;5.97;;
4821;SDS011;2425;47.794;13.068;2023-02-13T07:12:03;5.50;;;5.07;;
4821;SDS011;2425;47.794;13.068;2023-02-13T07:14:30;5.30;;;4.80;;
4821;SDS011;2425;47.794;13.068;2023-02-13T07:16:58;8.70;;;7.30;;
4821;SDS011;2425;47.794;13.068;2023-02-13T07:19:24;9.10;;;8.20;;
4821;SDS011;2425;47.794;13.068;2023-02-13T07:21:51;31.90;;;25.10;;
4821;SDS011;2425;47.794;13.068;2023-02-13T07:24:18;10.83;;;9.33;;
4821;SDS011;2425;47.794;13.068;2023-02-13T07:26:45;8.97;;;7.00;;
4821;SDS011;2425;47.794;13.068;2023-02-13T07:29:11;7.70;;;6.90;;
4821;SDS011;2425;47.794;13.068;2023-02-13T07:31:38;6.40;;;5.80;;
4821;SDS011;2425;47.794;13.068;2023-02-13T07:34:06;6.47;;;5.87;;
4821;SDS011;2425;47.794;13.068;2023-02-13T07:36:33;6.47;;;5.97;;
4821;SDS011;2425;47.794;13.068;2023-02-13T07:39:00;6.70;;;6.20;;
4821;SDS011;2425;47.794;13.068;2023-02-13T07:41:27;21.87;;;6.47;;
4821;SDS011;2425;47.794;13.068;2023-02-13T07:43:53;7.07;;;6.40;;
4821;SDS011;2425;47.794;13.068;2023-02-13T07:46:20;6.63;;;6.13;;
4821;SDS011;2425;47.794;13.068;2023-02-13T07:48:47;6.47;;;5.97;;
4821;SDS011;2425;47.794;13.068;2023-02-13T07:51:15;6.37;;;5.77;;
4821;SDS011;2425;47.794;13.068;2023-02-13T07:53:42;6.53;;;5.90;;
4821;SDS011;2425;47.794;13.068;2023-02-13T07:56:09;6.60;;;6.00;;
4821;SDS011;2425;47.794;13.068;2023-02-13T07:58:36;6.23;;;5.63;;
4821;SDS011;2425;47.794;13.068;2023-02-13T08:01:04;6.47;;;5.87;;
4821;SDS011;2425;47.794;13.068;2023-02-13T08:03:32;5.40;;;4.90;;
4821;SDS011;2425;47.794;13.068;2023-02-13T08:05:59;5.03;;;4.63;;
4821;SDS011;2425;47.794;13.068;2023-02-13T08:08:27;101.40;;;76.37;;
4821;SDS011;2425;47.794;13.068;2023-02-13T08:10:54;78.00;;;55.97;;
4821;SDS011;2425;47.794;13.068;2023-02-13T08:13:38;28.13;;;20.60;;
4821;SDS011;2425;47.794;13.068;2023-02-13T08:16:05;48.17;;;12.93;;
4821;SDS011;2425;47.794;13.068;2023-02-13T08:18:32;12.57;;;11.13;;
4821;SDS011;2425;47.794;13.068;2023-02-13T08:21:00;12.33;;;10.70;;
4821;SDS011;2425;47.794;13.068;2023-02-13T08:23:28;17.23;;;12.30;;
4821;SDS011;2425;47.794;13.068;2023-02-13T08:25:57;14.37;;;11.30;;
4821;SDS011;2425;47.794;13.068;2023-02-13T08:28:25;25.77;;;22.80;;
4821;SDS011;2425;47.794;13.068;2023-02-13T08:30:51;41.90;;;32.30;;
4821;SDS011;2425;47.794;13.068;2023-02-13T08:33:18;35.43;;;26.83;;
4821;SDS011;2425;47.794;13.068;2023-02-13T08:35:45;18.93;;;13.77;;
4821;SDS011;2425;47.794;13.068;2023-02-13T08:38:12;13.43;;;10.40;;
4821;SDS011;2425;47.794;13.068;2023-02-13T08:40:40;11.70;;;10.50;;
4821;SDS011;2425;47.794;13.068;2023-02-13T08:43:06;11.23;;;9.97;;
4821;SDS011;2425;47.794;13.068;2023-02-13T08:45:34;12.60;;;11.37;;
4821;SDS011;2425;47.794;13.068;2023-02-13T08:48:00;10.97;;;9.83;;
4821;SDS011;2425;47.794;13.068;2023-02-13T08:50:28;15.80;;;10.27;;
4821;SDS011;2425;47.794;13.068;2023-02-13T08:52:56;11.83;;;10.20;;
4821;SDS011;2425;47.794;13.068;2023-02-13T08:55:23;11.23;;;9.27;;
4821;SDS011;2425;47.794;13.068;2023-02-13T08:57:51;9.87;;;8.87;;
4821;SDS011;2425;47.794;13.068;2023-02-13T09:00:19;10.67;;;9.47;;
4821;SDS011;2425;47.794;13.068;2023-02-13T09:02:46;9.50;;;8.60;;
4821;SDS011;2425;47.794;13.068;2023-02-13T09:05:13;11.43;;;8.40;;
4821;SDS011;2425;47.794;13.068;2023-02-13T09:07:39;9.80;;;8.80;;
4821;SDS011;2425;47.794;13.068;2023-02-13T09:10:06;9.60;;;8.03;;
4821;SDS011;2425;47.794;13.068;2023-02-13T09:12:33;16.70;;;13.00;;
4821;SDS011;2425;47.794;13.068;2023-02-13T09:15:02;28.43;;;23.63;;
4821;SDS011;2425;47.794;13.068;2023-02-13T09:17:29;17.23;;;15.43;;
4821;SDS011;2425;47.794;13.068;2023-02-13T09:19:56;13.37;;;11.40;;
4821;SDS011;2425;47.794;13.068;2023-02-13T09:22:22;10.97;;;9.90;;
4821;SDS011;2425;47.794;13.068;2023-02-13T09:24:49;16.10;;;10.80;;
4821;SDS011;2425;47.794;13.068;2023-02-13T09:27:18;11.33;;;10.23;;
4821;SDS011;2425;47.794;13.068;2023-02-13T09:29:45;9.63;;;8.73;;
4821;SDS011;2425;47.794;13.068;2023-02-13T09:32:14;9.77;;;8.83;;
4821;SDS011;2425;47.794;13.068;2023-02-13T09:34:42;9.60;;;8.70;;
4821;SDS011;2425;47.794;13.068;2023-02-13T09:37:09;9.80;;;8.90;;
4821;SDS011;2425;47.794;13.068;2023-02-13T09:39:35;9.10;;;8.13;;
4821;SDS011;2425;47.794;13.068;2023-02-13T09:42:02;11.50;;;8.97;;
4821;SDS011;2425;47.794;13.068;2023-02-13T09:44:33;10.13;;;9.13;;
4821;SDS011;2425;47.794;13.068;2023-02-13T09:47:03;9.43;;;8.53;;
4821;SDS011;2425;47.794;13.068;2023-02-13T09:49:35;9.40;;;8.50;;
4821;SDS011;2425;47.794;13.068;2023-02-13T09:52:04;10.60;;;8.60;;
4821;SDS011;2425;47.794;13.068;2023-02-13T09:54:32;10.00;;;9.07;;
4821;SDS011;2425;47.794;13.068;2023-02-13T09:57:00;8.70;;;7.80;;
4821;SDS011;2425;47.794;13.068;2023-02-13T09:59:34;8.63;;;7.83;;
4821;SDS011;2425;47.794;13.068;2023-02-13T10:02:13;9.47;;;8.30;;
4821;SDS011;2425;47.794;13.068;2023-02-13T10:04:48;8.00;;;7.30;;
4821;SDS011;2425;47.794;13.068;2023-02-13T10:07:19;9.53;;;8.53;;
4821;SDS011;2425;47.794;13.068;2023-02-13T10:09:52;11.30;;;8.10;;
4821;SDS011;2425;47.794;13.068;2023-02-13T10:12:25;18.43;;;14.50;;
4821;SDS011;2425;47.794;13.068;2023-02-13T10:15:03;22.63;;;18.83;;
4821;SDS011;2425;47.794;13.068;2023-02-13T10:17:37;12.67;;;10.90;;
4821;SDS011;2425;47.794;13.068;2023-02-13T10:20:09;10.37;;;9.27;;
4821;SDS011;2425;47.794;13.068;2023-02-13T10:22:44;12.63;;;9.83;;
4821;SDS011;2425;47.794;13.068;2023-02-13T10:25:14;17.20;;;8.50;;
4821;SDS011;2425;47.794;13.068;2023-02-13T10:27:43;8.03;;;7.03;;
4821;SDS011;2425;47.794;13.068;2023-02-13T10:30:14;10.20;;;8.97;;
4821;SDS011;2425;47.794;13.068;2023-02-13T10:32:47;14.97;;;8.67;;
4821;SDS011;2425;47.794;13.068;2023-02-13T10:35:20;9.77;;;7.53;;
4821;SDS011;2425;47.794;13.068;2023-02-13T10:37:49;8.53;;;7.73;;
4821;SDS011;2425;47.794;13.068;2023-02-13T10:40:17;9.10;;;8.20;;
4821;SDS011;2425;47.794;13.068;2023-02-13T10:42:45;8.97;;;8.07;;
4821;SDS011;2425;47.794;13.068;2023-02-13T10:45:17;9.00;;;8.20;;
4821;SDS011;2425;47.794;13.068;2023-02-13T10:47:55;7.93;;;7.23;;
4821;SDS011;2425;47.794;13.068;2023-02-13T10:50:31;7.80;;;7.07;;
4821;SDS011;2425;47.794;13.068;2023-02-13T10:53:07;9.10;;;8.20;;
4821;SDS011;2425;47.794;13.068;2023-02-13T10:58:41;8.70;;;7.90;;
4821;SDS011;2425;47.794;13.068;2023-02-13T11:01:17;9.53;;;8.13;;
4821;SDS011;2425;47.794;13.068;2023-02-13T11:03:46;9.83;;;7.93;;
4821;SDS011;2425;47.794;13.068;2023-02-13T11:06:16;18.50;;;7.73;;
4821;SDS011;2425;47.794;13.068;2023-02-13T11:08:44;61.07;;;48.63;;
4821;SDS011;2425;47.794;13.068;2023-02-13T11:11:27;129.53;;;102.87;;
4821;SDS011;2425;47.794;13.068;2023-02-13T11:14:06;59.73;;;48.03;;
4821;SDS011;2425;47.794;13.068;2023-02-13T11:16:38;43.90;;;35.20;;
4821;SDS011;2425;47.794;13.068;2023-02-13T11:19:09;38.90;;;33.33;;
4821;SDS011;2425;47.794;13.068;2023-02-13T11:21:43;36.63;;;30.33;;
4821;SDS011;2425;47.794;13.068;2023-02-13T11:24:16;20.33;;;17.73;;
4821;SDS011;2425;47.794;13.068;2023-02-13T11:26:44;16.93;;;14.50;;
4821;SDS011;2425;47.794;13.068;2023-02-13T11:29:16;19.70;;;13.27;;
4821;SDS011;2425;47.794;13.068;2023-02-13T11:31:46;16.70;;;14.10;;
4821;SDS011;2425;47.794;13.068;2023-02-13T11:34:36;17.60;;;14.60;;
4821;SDS011;2425;47.794;13.068;2023-02-13T11:37:14;15.67;;;14.07;;
4821;SDS011;2425;47.794;13.068;2023-02-13T11:39:43;16.60;;;14.90;;
4821;SDS011;2425;47.794;13.068;2023-02-13T11:42:12;16.67;;;14.87;;
4821;SDS011;2425;47.794;13.068;2023-02-13T11:44:40;16.13;;;14.00;;
4821;SDS011;2425;47.794;13.068;2023-02-13T11:47:07;15.83;;;13.60;;
4821;SDS011;2425;47.794;13.068;2023-02-13T11:49:34;15.83;;;14.20;;
4821;SDS011;2425;47.794;13.068;2023-02-13T11:52:03;15.90;;;14.30;;
4821;SDS011;2425;47.794;13.068;2023-02-13T11:54:33;16.43;;;14.00;;
4821;SDS011;2425;47.794;13.068;2023-02-13T11:57:08;15.00;;;13.40;;
4821;SDS011;2425;47.794;13.068;2023-02-13T11:59:45;21.57;;;14.77;;
4821;SDS011;2425;47.794;13.068;2023-02-13T12:02:13;16.17;;;14.47;;
4821;SDS011;2425;47.794;13.068;2023-02-13T12:04:42;16.87;;;13.30;;
4821;SDS011;2425;47.794;13.068;2023-02-13T12:07:11;15.10;;;13.57;;
4821;SDS011;2425;47.794;13.068;2023-02-13T12:09:43;17.43;;;13.20;;
4821;SDS011;2425;47.794;13.068;2023-02-13T12:12:13;23.33;;;16.10;;
4821;SDS011;2425;47.794;13.068;2023-02-13T12:14:43;30.10;;;16.33;;
4821;SDS011;2425;47.794;13.068;2023-02-13T12:17:11;23.67;;;14.50;;
4821;SDS011;2425;47.794;13.068;2023-02-13T12:19:41;22.47;;;13.57;;
4821;SDS011;2425;47.794;13.068;2023-02-13T12:22:14;29.20;;;13.70;;
4821;SDS011;2425;47.794;13.068;2023-02-13T12:25:00;23.47;;;15.20;;
4821;SDS011;2425;47.794;13.068;2023-02-13T12:27:50;21.80;;;14.77;;
4821;SDS011;2425;47.794;13.068;2023-02-13T12:30:29;25.07;;;14.50;;
4821;SDS011;2425;47.794;13.068;2023-02-13T12:33:19;24.97;;;16.87;;
4821;SDS011;2425;47.794;13.068;2023-02-13T12:35:58;22.87;;;16.00;;
4821;SDS011;2425;47.794;13.068;2023-02-13T12:38:30;20.17;;;15.07;;
4821;SDS011;2425;47.794;13.068;2023-02-13T12:41:19;18.50;;;15.20;;
4821;SDS011;2425;47.794;13.068;2023-02-13T12:46:59;20.27;;;13.93;;
4821;SDS011;2425;47.794;13.068;2023-02-13T12:49:45;17.70;;;14.57;;
4821;SDS011;2425;47.794;13.068;2023-02-13T12:52:42;22.83;;;15.80;;
4821;SDS011;2425;47.794;13.068;2023-02-13T12:55:34;20.30;;;13.83;;
4821;SDS011;2425;47.794;13.068;2023-02-13T12:58:15;20.53;;;13.90;;
4821;SDS011;2425;47.794;13.068;2023-02-13T13:00:50;20.30;;;13.97;;
4821;SDS011;2425;47.794;13.068;2023-02-13T13:03:24;17.87;;;13.87;;
4821;SDS011;2425;47.794;13.068;2023-02-13T13:06:09;19.27;;;14.30;;
4821;SDS011;2425;47.794;13.068;2023-02-13T13:08:57;18.20;;;14.47;;
4821;SDS011;2425;47.794;13.068;2023-02-13T13:11:38;19.80;;;13.83;;
4821;SDS011;2425;47.794;13.068;2023-02-13T13:14:23;21.67;;;17.50;;
4821;SDS011;2425;47.794;13.068;2023-02-13T13:16:56;18.33;;;15.17;;
4821;SDS011;2425;47.794;13.068;2023-02-13T13:19:29;20.53;;;15.47;;
4821;SDS011;2425;47.794;13.068;2023-02-13T13:22:01;24.63;;;14.27;;
4821;SDS011;2425;47.794;13.068;2023-02-13T13:24:40;22.40;;;15.70;;
4821;SDS011;2425;47.794;13.068;2023-02-13T13:27:16;20.53;;;14.17;;
4821;SDS011;2425;47.794;13.068;2023-02-13T13:29:47;23.80;;;15.43;;
4821;SDS011;2425;47.794;13.068;2023-02-13T13:32:17;20.17;;;15.53;;
4821;SDS011;2425;47.794;13.068;2023-02-13T13:34:45;16.30;;;14.33;;
4821;SDS011;2425;47.794;13.068;2023-02-13T13:37:13;19.10;;;14.10;;
4821;SDS011;2425;47.794;13.068;2023-02-13T13:39:48;18.10;;;14.43;;
4821;SDS011;2425;47.794;13.068;2023-02-13T13:42:22;18.13;;;13.60;;
4821;SDS011;2425;47.794;13.068;2023-02-13T13:45:02;17.90;;;13.70;;
4821;SDS011;2425;47.794;13.068;2023-02-13T13:47:37;18.93;;;14.00;;
4821;SDS011;2425;47.794;13.068;2023-02-13T13:50:16;17.07;;;12.97;;
4821;SDS011;2425;47.794;13.068;2023-02-13T13:58:41;25.23;;;13.70;;
4821;SDS011;2425;47.794;13.068;2023-02-13T14:01:17;19.43;;;14.20;;
4821;SDS011;2425;47.794;13.068;2023-02-13T14:03:45;15.70;;;13.93;;
4821;SDS011;2425;47.794;13.068;2023-02-13T14:06:13;19.30;;;13.33;;
4821;SDS011;2425;47.794;13.068;2023-02-13T14:11:44;14.83;;;12.40;;
4821;SDS011;2425;47.794;13.068;2023-02-13T14:20:23;16.57;;;11.77;;
4821;SDS011;2425;47.794;13.068;2023-02-13T14:22:55;18.80;;;11.63;;
4821;SDS011;2425;47.794;13.068;2023-02-13T14:25:22;14.30;;;12.00;;
4821;SDS011;2425;47.794;13.068;2023-02-13T14:30:31;15.60;;;11.43;;
4821;SDS011;2425;47.794;13.068;2023-02-13T14:33:01;14.10;;;11.73;;
4821;SDS011;2425;47.794;13.068;2023-02-13T14:35:31;13.20;;;11.33;;
4821;SDS011;2425;47.794;13.068;2023-02-13T14:37:59;14.27;;;11.00;;
4821;SDS011;2425;47.794;13.068;2023-02-13T14:43:35;17.73;;;11.67;;
4821;SDS011;2425;47.794;13.068;2023-02-13T14:46:08;18.57;;;11.20;;
4821;SDS011;2425;47.794;13.068;2023-02-13T14:48:56;12.00;;;10.47;;
4821;SDS011;2425;47.794;13.068;2023-02-13T14:51:28;11.47;;;10.27;;
4821;SDS011;2425;47.794;13.068;2023-02-13T14:54:01;15.70;;;9.97;;
4821;SDS011;2425;47.794;13.068;2023-02-13T14:56:30;11.30;;;10.13;;
4821;SDS011;2425;47.794;13.068;2023-02-13T14:58:59;12.47;;;10.53;;
4821;SDS011;2425;47.794;13.068;2023-02-13T15:01:31;12.60;;;10.40;;
4821;SDS011;2425;47.794;13.068;2023-02-13T15:04:02;11.67;;;10.03;;
4821;SDS011;2425;47.794;13.068;2023-02-13T15:06:32;12.80;;;9.30;;
4821;SDS011;2425;47.794;13.068;2023-02-13T15:09:02;15.30;;;10.30;;
4821;SDS011;2425;47.794;13.068;2023-02-13T15:11:33;14.20;;;9.90;;
4821;SDS011;2425;47.794;13.068;2023-02-13T15:16:48;18.00;;;10.17;;
4821;SDS011;2425;47.794;13.068;2023-02-13T15:19:18;23.07;;;17.10;;
4821;SDS011;2425;47.794;13.068;2023-02-13T15:21:51;13.23;;;11.90;;
4821;SDS011;2425;47.794;13.068;2023-02-13T15:24:20;12.97;;;11.27;;
4821;SDS011;2425;47.794;13.068;2023-02-13T15:26:57;13.93;;;10.83;;
4821;SDS011;2425;47.794;13.068;2023-02-13T15:29:26;15.50;;;10.40;;
4821;SDS011;2425;47.794;13.068;2023-02-13T15:31:52;13.87;;;10.60;;
4821;SDS011;2425;47.794;13.068;2023-02-13T15:34:22;10.80;;;9.70;;
4821;SDS011;2425;47.794;13.068;2023-02-13T15:36:51;20.40;;;11.27;;
4821;SDS011;2425;47.794;13.068;2023-02-13T15:39:19;11.33;;;9.73;;
4821;SDS011;2425;47.794;13.068;2023-02-13T15:41:49;13.33;;;9.53;;
4821;SDS011;2425;47.794;13.068;2023-02-13T15:44:17;10.73;;;9.60;;
4821;SDS011;2425;47.794;13.068;2023-02-13T15:46:46;12.60;;;10.20;;